createdAt,value
2018-12-09T00:02:12.564Z,6.79
2018-12-09T00:04:43.447Z,6.80
2018-12-09T00:07:14.240Z,6.94
2018-12-09T00:09:43.347Z,6.90
2018-12-09T00:12:12.367Z,7.13
2018-12-09T00:14:42.058Z,7.14
2018-12-09T00:17:10.941Z,7.20
2018-12-09T00:19:39.879Z,7.38
2018-12-09T00:22:08.923Z,7.35
2018-12-09T00:24:37.858Z,7.44
2018-12-09T00:27:06.690Z,7.52
2018-12-09T00:29:35.590Z,7.52
2018-12-09T00:32:04.620Z,7.58
2018-12-09T00:34:33.622Z,7.68
2018-12-09T00:37:02.470Z,7.63
2018-12-09T00:39:32.000Z,7.66
2018-12-09T00:42:00.935Z,7.65
2018-12-09T00:44:29.969Z,7.75
2018-12-09T00:46:59.775Z,7.78
2018-12-09T00:49:28.650Z,7.90
2018-12-09T00:51:57.558Z,7.85
2018-12-09T00:54:26.671Z,7.98
2018-12-09T00:56:55.531Z,8.04
2018-12-09T00:59:24.365Z,8.02
2018-12-09T01:01:53.291Z,8.02
2018-12-09T01:04:22.173Z,7.97
2018-12-09T01:06:51.254Z,8.17
2018-12-09T01:09:20.197Z,8.20
2018-12-09T01:11:49.058Z,8.14
2018-12-09T01:14:17.999Z,8.21
2018-12-09T01:16:46.890Z,8.27
2018-12-09T01:19:15.734Z,8.03
2018-12-09T01:21:44.563Z,7.94
2018-12-09T01:24:13.410Z,7.84
2018-12-09T01:26:42.324Z,7.94
2018-12-09T01:29:11.214Z,7.95
2018-12-09T01:31:40.062Z,7.61
2018-12-09T01:34:08.952Z,7.30
2018-12-09T01:36:37.784Z,7.21
2018-12-09T01:39:06.867Z,7.23
2018-12-09T01:41:36.586Z,7.23
2018-12-09T01:44:05.570Z,7.28
2018-12-09T01:46:34.462Z,7.30
2018-12-09T01:49:03.362Z,7.34
2018-12-09T01:51:32.256Z,7.31
2018-12-09T01:54:10.014Z,7.42
2018-12-09T01:56:39.651Z,7.39
2018-12-09T01:59:08.589Z,7.45
2018-12-09T02:01:37.492Z,7.44
2018-12-09T02:04:06.518Z,7.44
2018-12-09T02:06:36.025Z,7.46
2018-12-09T02:09:07.448Z,7.45
2018-12-09T02:11:38.085Z,7.48
2018-12-09T02:14:07.229Z,7.75
2018-12-09T02:16:36.603Z,7.80
2018-12-09T02:19:17.823Z,7.77
2018-12-09T02:21:46.979Z,7.71
2018-12-09T02:24:16.436Z,7.71
2018-12-09T02:26:45.415Z,7.91
2018-12-09T02:29:14.439Z,7.89
2018-12-09T02:31:43.332Z,7.86
2018-12-09T02:34:12.384Z,7.90
2018-12-09T02:36:41.352Z,7.88
2018-12-09T02:39:11.362Z,7.93
2018-12-09T02:41:40.290Z,7.95
2018-12-09T02:44:09.197Z,7.85
2018-12-09T02:46:38.262Z,8.02
2018-12-09T02:49:07.140Z,8.19
2018-12-09T02:51:36.114Z,8.15
2018-12-09T02:54:05.013Z,8.18
2018-12-09T02:56:34.021Z,8.29
2018-12-09T02:59:03.203Z,8.25
2018-12-09T03:01:32.138Z,8.31
2018-12-09T03:04:01.073Z,8.42
2018-12-09T03:06:30.017Z,8.39
2018-12-09T03:08:58.853Z,8.39
2018-12-09T03:11:27.757Z,8.41
2018-12-09T03:13:56.657Z,8.30
2018-12-09T03:16:25.652Z,8.36
2018-12-09T03:18:55.187Z,8.50
2018-12-09T03:21:24.017Z,8.56
2018-12-09T03:23:53.018Z,8.61
2018-12-09T03:26:22.040Z,8.58
2018-12-09T03:28:51.017Z,8.54
2018-12-09T03:31:19.934Z,8.57
2018-12-09T03:33:48.906Z,8.59
2018-12-09T03:36:17.992Z,8.51
2018-12-09T03:38:47.404Z,8.56
2018-12-09T03:41:16.426Z,8.73
2018-12-09T03:43:45.356Z,8.70
2018-12-09T03:46:14.378Z,8.75
2018-12-09T03:48:43.378Z,8.78
2018-12-09T03:51:12.414Z,8.78
2018-12-09T03:53:41.469Z,8.74
2018-12-09T03:56:10.473Z,8.74
2018-12-09T03:58:39.588Z,8.71
2018-12-09T04:01:08.561Z,8.69
2018-12-09T04:03:37.961Z,8.59
2018-12-09T04:06:06.862Z,8.54
2018-12-09T04:08:35.945Z,8.60
2018-12-09T04:11:04.860Z,8.70
2018-12-09T04:13:34.849Z,8.73
2018-12-09T04:16:03.923Z,8.74
2018-12-09T04:18:34.875Z,8.74
2018-12-09T04:21:03.884Z,8.73
2018-12-09T04:23:32.812Z,8.80
2018-12-09T04:26:03.599Z,8.72
2018-12-09T04:28:32.512Z,8.83
2018-12-09T04:31:01.476Z,8.84
2018-12-09T04:33:31.511Z,8.83
2018-12-09T04:36:00.479Z,8.82
2018-12-09T04:38:29.320Z,8.74
2018-12-09T04:40:58.312Z,8.69
2018-12-09T04:43:27.283Z,8.49
2018-12-09T04:45:56.249Z,8.05
2018-12-09T04:48:25.255Z,7.69
2018-12-09T04:50:54.134Z,7.44
2018-12-09T04:53:23.131Z,6.83
2018-12-09T04:55:52.250Z,6.59
2018-12-09T04:58:21.226Z,6.52
2018-12-09T05:00:55.329Z,6.42
2018-12-09T05:03:24.214Z,6.38
2018-12-09T05:05:53.211Z,6.32
2018-12-09T05:08:22.122Z,6.31
2018-12-09T05:10:51.122Z,6.34
2018-12-09T05:13:20.263Z,6.38
2018-12-09T05:15:49.327Z,6.36
2018-12-09T05:18:18.238Z,6.47
2018-12-09T05:20:47.546Z,6.59
2018-12-09T05:23:16.480Z,6.61
2018-12-09T05:25:45.338Z,6.62
2018-12-09T05:28:14.182Z,6.70
2018-12-09T05:30:43.038Z,6.77
2018-12-09T05:33:11.924Z,6.76
2018-12-09T05:35:41.028Z,6.80
2018-12-09T05:38:10.004Z,6.81
2018-12-09T05:40:39.648Z,6.81
2018-12-09T05:43:08.566Z,6.87
2018-12-09T05:45:37.527Z,6.81
2018-12-09T05:48:06.380Z,6.83
2018-12-09T05:50:35.321Z,6.93
2018-12-09T05:53:05.307Z,7.05
2018-12-09T05:55:34.512Z,6.98
2018-12-09T05:58:03.419Z,7.07
2018-12-09T06:00:32.402Z,7.04
2018-12-09T06:03:01.379Z,7.07
2018-12-09T06:05:30.304Z,7.12
2018-12-09T06:07:59.255Z,7.09
2018-12-09T06:10:28.104Z,7.08
2018-12-09T06:12:57.025Z,7.12
2018-12-09T06:15:25.987Z,7.03
2018-12-09T06:17:55.216Z,7.06
2018-12-09T06:20:24.134Z,7.14
2018-12-09T06:22:53.214Z,7.15
2018-12-09T06:25:22.143Z,7.15
2018-12-09T06:27:51.036Z,7.13
2018-12-09T06:30:20.080Z,7.10
2018-12-09T06:32:48.938Z,7.20
2018-12-09T06:35:17.837Z,7.17
2018-12-09T06:37:46.769Z,7.26
2018-12-09T06:40:15.889Z,7.27
2018-12-09T06:42:44.830Z,7.31
2018-12-09T06:45:13.844Z,7.33
2018-12-09T06:47:42.853Z,7.33
2018-12-09T06:50:12.198Z,7.35
2018-12-09T06:52:42.135Z,7.36
2018-12-09T06:55:11.045Z,7.33
2018-12-09T06:57:39.987Z,7.35
2018-12-09T07:00:10.031Z,7.26
2018-12-09T07:02:39.225Z,7.22
2018-12-09T07:05:08.755Z,7.16
2018-12-09T07:07:37.846Z,7.10
2018-12-09T07:10:08.998Z,7.08
2018-12-09T07:12:38.308Z,7.03
2018-12-09T07:15:07.421Z,6.93
2018-12-09T07:17:36.398Z,6.89
2018-12-09T07:20:06.693Z,6.87
2018-12-09T07:22:35.779Z,6.61
2018-12-09T07:25:05.087Z,6.10
2018-12-09T07:27:34.427Z,5.80
2018-12-09T07:30:04.095Z,5.73
2018-12-09T07:32:33.080Z,5.60
2018-12-09T07:35:02.003Z,5.58
2018-12-09T07:37:31.452Z,5.57
2018-12-09T07:40:00.383Z,5.71
2018-12-09T07:42:29.323Z,5.71
2018-12-09T07:44:58.454Z,5.78
2018-12-09T07:47:27.440Z,5.77
2018-12-09T07:49:56.298Z,5.77
2018-12-09T07:52:25.734Z,5.72
2018-12-09T07:54:54.633Z,5.74
2018-12-09T07:57:23.598Z,5.70
2018-12-09T07:59:52.478Z,5.73
2018-12-09T08:02:21.362Z,5.72
2018-12-09T08:04:50.214Z,5.75
2018-12-09T08:07:19.128Z,5.83
2018-12-09T08:09:47.994Z,5.91
2018-12-09T08:12:16.890Z,6.14
2018-12-09T08:14:45.723Z,6.25
2018-12-09T08:17:14.562Z,6.41
2018-12-09T08:19:43.479Z,6.40
2018-12-09T08:22:12.376Z,6.40
2018-12-09T08:24:41.323Z,6.39
2018-12-09T08:27:10.761Z,6.39
2018-12-09T08:29:39.635Z,6.33
2018-12-09T08:32:08.612Z,6.31
2018-12-09T08:34:37.499Z,6.37
2018-12-09T08:37:06.455Z,6.33
2018-12-09T08:39:35.253Z,6.30
2018-12-09T08:42:04.324Z,6.26
2018-12-09T08:44:34.318Z,6.34
2018-12-09T08:47:09.948Z,6.32
2018-12-09T08:49:38.802Z,6.39
2018-12-09T08:52:07.647Z,6.38
2018-12-09T08:54:36.523Z,6.38
2018-12-09T08:57:05.434Z,6.38
2018-12-09T08:59:34.370Z,6.42
2018-12-09T09:02:03.258Z,6.45
2018-12-09T09:04:32.357Z,6.50
2018-12-09T09:07:01.316Z,6.52
2018-12-09T09:09:30.172Z,6.51
2018-12-09T09:11:59.083Z,6.56
2018-12-09T09:14:27.923Z,6.65
2018-12-09T09:16:56.785Z,6.67
2018-12-09T09:19:25.642Z,6.73
2018-12-09T09:21:54.519Z,6.87
2018-12-09T09:24:23.435Z,6.83
2018-12-09T09:26:52.279Z,6.79
2018-12-09T09:29:21.181Z,6.80
2018-12-09T09:31:50.069Z,6.78
2018-12-09T09:34:18.932Z,6.90
2018-12-09T09:36:47.836Z,7.02
2018-12-09T09:39:16.682Z,7.02
2018-12-09T09:41:45.655Z,7.08
2018-12-09T09:44:14.542Z,7.09
2018-12-09T09:46:43.484Z,7.05
2018-12-09T09:49:12.327Z,7.12
2018-12-09T09:51:41.443Z,7.25
2018-12-09T09:54:10.307Z,7.41
2018-12-09T09:56:39.176Z,7.45
2018-12-09T09:59:08.054Z,7.44
2018-12-09T10:01:36.931Z,7.50
2018-12-09T10:04:05.867Z,7.43
2018-12-09T10:06:34.859Z,7.56
2018-12-09T10:09:06.045Z,7.48
2018-12-09T10:11:35.484Z,7.82
2018-12-09T10:14:04.475Z,7.93
2018-12-09T10:16:33.613Z,7.66
2018-12-09T10:19:02.476Z,7.69
2018-12-09T10:21:31.384Z,7.65
2018-12-09T10:24:00.254Z,7.42
2018-12-09T10:26:36.268Z,7.25
2018-12-09T10:29:00.742Z,7.25
2018-12-09T10:31:29.691Z,7.26
2018-12-09T10:33:58.539Z,7.33
2018-12-09T10:36:27.602Z,7.29
2018-12-09T10:38:56.487Z,7.26
2018-12-09T10:41:25.338Z,7.21
2018-12-09T10:43:54.291Z,7.09
2018-12-09T10:46:23.327Z,7.00
2018-12-09T10:48:52.379Z,6.98
2018-12-09T10:51:21.354Z,7.00
2018-12-09T10:53:50.190Z,7.09
2018-12-09T10:56:19.625Z,7.06
2018-12-09T10:58:49.303Z,7.07
2018-12-09T11:01:24.222Z,7.07
2018-12-09T11:03:54.065Z,7.11
2018-12-09T11:06:24.756Z,7.05
2018-12-09T11:08:53.785Z,7.05
2018-12-09T11:11:22.824Z,7.01
2018-12-09T11:13:58.109Z,6.97
2018-12-09T11:16:24.338Z,6.94
2018-12-09T11:18:53.827Z,6.91
2018-12-09T11:21:30.344Z,7.00
2018-12-09T11:23:54.181Z,7.02
2018-12-09T11:26:23.524Z,7.10
2018-12-09T11:28:52.483Z,7.07
2018-12-09T11:31:22.627Z,7.11
2018-12-09T11:33:52.390Z,7.22
2018-12-09T11:36:21.735Z,7.26
2018-12-09T11:38:51.013Z,7.26
2018-12-09T11:41:20.019Z,7.38
2018-12-09T11:43:48.987Z,7.43
2018-12-09T11:46:18.767Z,7.48
2018-12-09T11:48:48.265Z,7.62
2018-12-09T11:51:17.315Z,7.62
2018-12-09T11:53:47.463Z,7.66
2018-12-09T11:56:17.005Z,7.75
2018-12-09T11:58:46.670Z,7.96
2018-12-09T12:01:15.711Z,8.09
2018-12-09T12:03:44.991Z,8.14
2018-12-09T12:06:14.322Z,8.06
2018-12-09T12:08:43.601Z,8.01
2018-12-09T12:11:12.766Z,7.97
2018-12-09T12:13:42.079Z,8.01
2018-12-09T12:16:11.482Z,7.88
2018-12-09T12:18:40.717Z,7.77
2018-12-09T12:21:10.219Z,7.97
2018-12-09T12:23:39.175Z,8.11
2018-12-09T12:26:09.361Z,8.06
2018-12-09T12:28:38.641Z,8.03
2018-12-09T12:31:07.899Z,8.05
2018-12-09T12:33:36.721Z,8.24
2018-12-09T12:36:05.690Z,8.19
2018-12-09T12:38:34.547Z,8.03
2018-12-09T12:41:03.459Z,8.10
2018-12-09T12:43:32.476Z,8.08
2018-12-09T12:46:01.398Z,7.89
2018-12-09T12:48:30.468Z,7.62
2018-12-09T12:50:59.449Z,7.38
2018-12-09T12:53:28.366Z,7.13
2018-12-09T12:55:57.382Z,6.96
2018-12-09T12:58:26.298Z,6.85
2018-12-09T13:00:55.200Z,6.95
2018-12-09T13:03:25.280Z,6.93
2018-12-09T13:05:54.297Z,6.90
2018-12-09T13:08:24.631Z,6.92
2018-12-09T13:10:53.487Z,6.94
2018-12-09T13:13:22.421Z,7.01
2018-12-09T13:15:51.665Z,6.97
2018-12-09T13:18:20.611Z,6.97
2018-12-09T13:20:49.443Z,6.99
2018-12-09T13:23:18.379Z,7.01
2018-12-09T13:25:48.249Z,7.23
2018-12-09T13:28:17.142Z,7.70
2018-12-09T13:30:46.103Z,7.68
2018-12-09T13:33:15.127Z,7.63
2018-12-09T13:35:44.018Z,7.63
2018-12-09T13:38:13.012Z,7.48
2018-12-09T13:40:41.927Z,7.61
2018-12-09T13:43:11.431Z,8.08
2018-12-09T13:45:40.979Z,8.13
2018-12-09T13:48:10.415Z,7.94
2018-12-09T13:50:39.436Z,7.69
2018-12-09T13:53:08.326Z,7.57
2018-12-09T13:55:37.334Z,7.40
2018-12-09T13:58:06.518Z,7.34
2018-12-09T14:00:35.744Z,7.36
2018-12-09T14:03:04.674Z,7.26
2018-12-09T14:05:33.532Z,7.29
2018-12-09T14:08:02.487Z,7.17
2018-12-09T14:10:31.665Z,7.00
2018-12-09T14:13:00.576Z,6.94
2018-12-09T14:15:29.531Z,6.84
2018-12-09T14:17:58.454Z,6.71
2018-12-09T14:20:27.459Z,6.40
2018-12-09T14:22:56.423Z,6.30
2018-12-09T14:25:25.267Z,6.27
2018-12-09T14:27:54.194Z,6.22
2018-12-09T14:30:23.218Z,6.19
2018-12-09T14:32:52.059Z,6.16
2018-12-09T14:35:20.975Z,6.16
2018-12-09T14:37:49.835Z,6.12
2018-12-09T14:40:18.771Z,6.14
2018-12-09T14:42:47.709Z,6.04
2018-12-09T14:45:16.539Z,6.02
2018-12-09T14:47:45.421Z,6.05
2018-12-09T14:50:14.342Z,6.04
2018-12-09T14:52:43.222Z,6.05
2018-12-09T14:55:12.142Z,6.12
2018-12-09T14:57:41.083Z,6.08
2018-12-09T15:00:11.395Z,6.03
2018-12-09T15:02:40.402Z,6.09
2018-12-09T15:05:09.324Z,6.17
2018-12-09T15:07:38.236Z,6.20
2018-12-09T15:10:08.898Z,6.18
2018-12-09T15:12:38.192Z,6.20
2018-12-09T15:15:07.672Z,6.14
2018-12-09T15:17:38.075Z,6.17
2018-12-09T15:20:07.010Z,6.09
2018-12-09T15:22:36.059Z,6.14
2018-12-09T15:25:07.080Z,6.13
2018-12-09T15:27:36.835Z,6.17
2018-12-09T15:30:07.127Z,6.13
2018-12-09T15:32:36.174Z,6.19
2018-12-09T15:35:05.511Z,6.14
2018-12-09T15:37:34.495Z,6.16
2018-12-09T15:40:03.511Z,6.21
2018-12-09T15:42:32.553Z,6.15
2018-12-09T15:45:01.431Z,6.19
2018-12-09T15:47:30.480Z,6.24
2018-12-09T15:49:59.451Z,6.27
2018-12-09T15:52:28.479Z,6.23
2018-12-09T15:54:57.334Z,6.30
2018-12-09T15:57:27.246Z,6.32
2018-12-09T15:59:56.151Z,6.28
2018-12-09T16:02:25.031Z,6.28
2018-12-09T16:04:53.931Z,6.33
2018-12-09T16:07:22.818Z,6.39
2018-12-09T16:09:51.654Z,6.38
2018-12-09T16:12:20.496Z,6.39
2018-12-09T16:14:49.402Z,6.37
2018-12-09T16:17:18.280Z,6.40
2018-12-09T16:19:47.815Z,6.40
2018-12-09T16:22:17.013Z,6.41
2018-12-09T16:24:45.886Z,6.38
2018-12-09T16:27:14.839Z,6.40
2018-12-09T16:29:43.799Z,6.34
2018-12-09T16:32:12.672Z,6.28
2018-12-09T16:34:41.497Z,6.26
2018-12-09T16:37:10.476Z,6.27
2018-12-09T16:39:39.822Z,6.28
2018-12-09T16:42:08.723Z,6.26
2018-12-09T16:44:37.675Z,6.21
2018-12-09T16:47:06.525Z,6.19
2018-12-09T16:49:35.432Z,6.18
2018-12-09T16:52:04.324Z,6.12
2018-12-09T16:54:33.282Z,6.03
2018-12-09T16:57:02.103Z,6.02
2018-12-09T16:59:31.114Z,5.91
2018-12-09T17:02:00.152Z,5.87
2018-12-09T17:04:30.522Z,5.85
2018-12-09T17:06:59.604Z,5.83
2018-12-09T17:09:28.857Z,5.86
2018-12-09T17:11:58.106Z,5.84
2018-12-09T17:14:27.740Z,5.86
2018-12-09T17:16:57.356Z,5.77
2018-12-09T17:19:26.562Z,5.82
2018-12-09T17:21:55.768Z,5.91
2018-12-09T17:24:25.854Z,5.94
2018-12-09T17:26:55.195Z,5.95
2018-12-09T17:29:24.523Z,5.92
2018-12-09T17:31:53.980Z,5.89
2018-12-09T17:34:23.233Z,5.79
2018-12-09T17:36:52.314Z,5.77
2018-12-09T17:39:21.434Z,5.76
2018-12-09T17:41:50.676Z,5.67
2018-12-09T17:44:19.726Z,5.71
2018-12-09T17:46:48.955Z,5.70
2018-12-09T17:49:18.171Z,5.70
2018-12-09T17:51:47.347Z,5.72
2018-12-09T17:54:16.591Z,5.66
2018-12-09T17:56:45.763Z,5.69
2018-12-09T17:59:14.943Z,5.71
2018-12-09T18:01:44.045Z,5.69
2018-12-09T18:04:13.289Z,5.65
2018-12-09T18:06:42.415Z,5.63
2018-12-09T18:09:11.579Z,5.65
2018-12-09T18:11:40.765Z,5.69
2018-12-09T18:14:11.191Z,5.66
2018-12-09T18:16:40.410Z,5.72
2018-12-09T18:19:09.500Z,5.76
2018-12-09T18:21:38.764Z,5.74
2018-12-09T18:24:08.022Z,5.74
2018-12-09T18:26:37.160Z,5.79
2018-12-09T18:29:06.291Z,5.78
2018-12-09T18:31:35.700Z,5.75
2018-12-09T18:34:04.919Z,5.75
2018-12-09T19:09:31.674Z,5.89
2018-12-09T19:12:03.458Z,5.93
2018-12-09T19:14:32.379Z,5.96
2018-12-09T19:17:01.375Z,5.90
2018-12-09T19:19:30.307Z,5.93
2018-12-09T19:21:59.244Z,5.92
2018-12-09T19:24:28.243Z,5.88
2018-12-09T19:26:57.103Z,5.88
2018-12-09T19:29:26.106Z,5.86
2018-12-09T19:31:55.059Z,5.90
2018-12-09T19:34:24.080Z,5.88
2018-12-09T19:36:52.994Z,5.87
2018-12-09T19:39:22.014Z,5.91
2018-12-09T19:41:50.980Z,5.93
2018-12-09T19:44:19.960Z,5.99
2018-12-09T19:46:49.172Z,5.92
2018-12-09T19:49:18.370Z,5.90
2018-12-09T19:51:48.408Z,5.93
2018-12-09T19:54:17.478Z,5.91
2018-12-09T19:56:47.502Z,6.00
2018-12-09T19:59:16.475Z,5.97
2018-12-09T20:01:45.395Z,5.98
2018-12-09T20:04:14.394Z,6.00
2018-12-09T20:06:43.367Z,6.05
2018-12-09T20:09:12.414Z,6.09
2018-12-09T20:11:41.439Z,6.10
2018-12-09T20:14:10.353Z,6.10
2018-12-09T20:16:39.471Z,6.11
2018-12-09T20:19:08.859Z,6.12
2018-12-09T20:21:37.807Z,6.17
2018-12-09T20:24:06.714Z,6.12
2018-12-09T20:26:35.718Z,6.13
2018-12-09T20:29:04.899Z,6.12
2018-12-09T20:31:34.060Z,6.16
2018-12-09T20:34:03.245Z,6.13
2018-12-09T20:36:32.480Z,6.10
2018-12-09T20:39:01.890Z,6.02
2018-12-09T20:41:33.614Z,5.97
2018-12-09T20:44:02.812Z,5.98
2018-12-09T20:46:32.936Z,5.88
2018-12-09T20:49:02.200Z,5.75
2018-12-09T20:51:31.242Z,5.58
2018-12-09T20:54:00.359Z,5.57
2018-12-09T20:56:29.336Z,5.52
2018-12-09T20:58:58.365Z,5.43
2018-12-09T21:01:27.416Z,5.44
2018-12-09T21:03:56.262Z,5.41
2018-12-09T21:06:25.267Z,5.29
2018-12-09T21:08:55.539Z,5.27
2018-12-09T21:11:24.572Z,5.19
2018-12-09T21:13:53.459Z,5.19
2018-12-09T21:16:22.293Z,5.30
2018-12-09T21:18:52.466Z,5.30
2018-12-09T21:21:21.367Z,5.36
2018-12-09T21:23:50.254Z,5.37
2018-12-09T21:26:20.685Z,5.43
2018-12-09T21:28:50.578Z,5.47
2018-12-09T21:31:20.174Z,5.47
2018-12-09T21:33:49.510Z,5.54
2018-12-09T21:36:19.194Z,5.53
2018-12-09T21:38:48.350Z,5.66
2018-12-09T21:41:18.000Z,5.68
2018-12-09T21:43:47.052Z,5.73
2018-12-09T21:46:16.776Z,5.67
2018-12-09T21:48:46.294Z,5.63
2018-12-09T21:51:16.590Z,5.72
2018-12-09T21:53:46.022Z,5.72
2018-12-09T21:56:15.930Z,5.75
2018-12-09T21:58:47.534Z,5.82
2018-12-09T22:01:17.166Z,5.83
2018-12-09T22:03:46.717Z,5.88
2018-12-09T22:06:15.820Z,5.81
2018-12-09T22:08:44.712Z,5.80
2018-12-09T22:11:13.656Z,5.76
2018-12-09T22:13:42.602Z,5.76
2018-12-09T22:16:11.569Z,5.74
2018-12-09T22:18:40.474Z,5.74
2018-12-09T22:21:09.344Z,5.84
2018-12-09T22:23:38.247Z,5.84
2018-12-09T22:26:07.246Z,5.85
2018-12-09T22:28:36.147Z,5.84
2018-12-09T22:31:05.103Z,5.80
2018-12-09T22:33:34.007Z,5.81
2018-12-09T22:36:02.924Z,5.79
2018-12-09T22:38:31.841Z,5.83
2018-12-09T22:41:00.717Z,5.84
2018-12-09T22:43:29.694Z,5.84
2018-12-09T22:45:58.568Z,5.84
2018-12-09T22:48:27.946Z,5.77
2018-12-09T22:50:57.088Z,5.75
2018-12-09T22:53:26.071Z,5.70
2018-12-09T22:55:55.125Z,5.70
2018-12-09T22:58:24.047Z,5.71
2018-12-09T23:00:58.467Z,5.68
2018-12-09T23:03:29.617Z,5.70
2018-12-09T23:05:59.673Z,5.69
2018-12-09T23:08:28.523Z,5.70
2018-12-09T23:10:57.449Z,5.70
2018-12-09T23:13:26.287Z,5.70
2018-12-09T23:15:55.178Z,5.67
2018-12-09T23:18:24.487Z,5.69
2018-12-09T23:20:53.437Z,5.63
2018-12-09T23:23:22.576Z,5.60
2018-12-09T23:25:51.486Z,5.56
2018-12-09T23:28:20.385Z,5.59
2018-12-09T23:30:49.394Z,5.51
2018-12-09T23:33:19.362Z,5.52
2018-12-09T23:35:48.211Z,5.49
2018-12-09T23:38:17.155Z,5.52
2018-12-09T23:40:46.025Z,5.52
2018-12-09T23:43:14.939Z,5.54
2018-12-09T23:45:43.823Z,5.62
2018-12-09T23:48:12.808Z,5.60
2018-12-09T23:50:41.658Z,5.58
2018-12-09T23:53:10.569Z,5.54
2018-12-09T23:55:39.603Z,5.48
2018-12-09T23:58:08.562Z,5.35
